Leandra — V2EB4 — position and weather

sailwx.info

Track history (hours):
 
Tides and Currents Weather Stations Pressure Air Temp Water Temp Dewpoint Dewpoint Depression Visibility Wind Speed Wind Dir Waves Ship Positions

Leandra

Last reported at 2015-Jan-24 18:23 UTC. Time now 2015-Jan-26 02:25 UTC.
Position N 25°49' E 121°10'.

Length 146 m; draft 5.3 m.

Type: Cargo ship. MMSI: 305375000.

Date/timePositionNaut miles runAvg speedWind from/ knotsBaromVisibWave heightAir tempDewpointWater temp
2015-Jan-24 18:23N 25°49' E 121°10'2613.6
2015-Jan-24 16:26N 25°26' E 120°55'1213.1
2015-Jan-24 15:32N 25°16' E 120°49'1612.9
2015-Jan-24 14:18N 25°01' E 120°42'1013.5
2015-Jan-24 13:32N 24°52' E 120°37'2813.6
2015-Jan-24 11:27N 24°25' E 120°28'9 4.4
2015-Jan-24 09:20N 24°16' E 120°31'0 0.0
2015-Jan-24 08:32N 24°16' E 120°31'7 0.8
2015-Jan-23 23:27N 24°16' E 120°24'2111.2
2015-Jan-23 21:33N 24°01' E 120°07'1211.8
2015-Jan-23 20:33N 23°51' E 119°59'1311.1
2015-Jan-23 19:24N 23°39' E 119°56'4611.2
2015-Jan-23 15:19N 22°55' E 119°41'1013.1
2015-Jan-23 14:32N 22°50' E 119°32'1313.1
2015-Jan-23 13:33N 22°43' E 119°20'1313.3
2015-Jan-23 12:33N 22°35' E 119°08'  
2015-Jan-20 17:21N 21°36' E 108°20'1 0.6
2015-Jan-20 16:29N 21°37' E 108°20'0 0.0
2015-Jan-20 15:29N 21°37' E 108°20'0 0.0
2015-Jan-20 14:29N 21°37' E 108°20'0 0.0
2015-Jan-20 13:29N 21°37' E 108°20'0 0.0
2015-Jan-20 12:29N 21°37' E 108°20'0 0.0
2015-Jan-20 11:29N 21°37' E 108°20'0 0.0
2015-Jan-20 10:33N 21°37' E 108°20'0 0.0
2015-Jan-20 00:29N 21°37' E 108°20'0 0.0
2015-Jan-19 23:31N 21°37' E 108°20'0 0.0
2015-Jan-19 22:25N 21°36' E 108°20'0 0.1
2015-Jan-19 21:32N 21°37' E 108°20'0 0.0
2015-Jan-19 20:32N 21°37' E 108°20'0 0.0
2015-Jan-19 19:31N 21°37' E 108°20'0 0.0
2015-Jan-19 18:31N 21°37' E 108°20'0 0.0
2015-Jan-19 17:31N 21°37' E 108°20'0 0.0
2015-Jan-19 16:31N 21°37' E 108°20'0 0.0
2015-Jan-19 15:31N 21°37' E 108°20'0 0.0
2015-Jan-19 14:31N 21°37' E 108°20'0 0.1
2015-Jan-19 13:25N 21°37' E 108°20'0 0.1
2015-Jan-19 12:31N 21°37' E 108°20'0 0.0
2015-Jan-19 11:31N 21°37' E 108°20'0 0.0
2015-Jan-19 10:28N 21°37' E 108°20'0 0.0
2015-Jan-19 09:28N 21°37' E 108°20'0 0.0
2015-Jan-19 08:28N 21°37' E 108°20'0 0.0
2015-Jan-19 07:28N 21°37' E 108°20'0 0.1
2015-Jan-19 06:33N 21°37' E 108°20'  
Track history (hours):
 
Tides and Currents Weather Stations Pressure Air Temp Water Temp Dewpoint Dewpoint Depression Visibility Wind Speed Wind Dir Waves Ship Positions

Leandra

Last reported at 2015-Jan-24 18:23 UTC. Time now 2015-Jan-26 02:25 UTC.
Position N 25°49' E 121°10'.

Length 146 m; draft 5.3 m.

Type: Cargo ship. MMSI: 305375000.

Date/timePositionNaut miles runAvg speedWind from/ knotsBaromVisibWave heightAir tempDewpointWater temp
2015-Jan-24 18:23N 25°49' E 121°10'2613.6
2015-Jan-24 16:26N 25°26' E 120°55'1213.1
2015-Jan-24 15:32N 25°16' E 120°49'1612.9
2015-Jan-24 14:18N 25°01' E 120°42'1013.5
2015-Jan-24 13:32N 24°52' E 120°37'2813.6
2015-Jan-24 11:27N 24°25' E 120°28'9 4.4
2015-Jan-24 09:20N 24°16' E 120°31'0 0.0
2015-Jan-24 08:32N 24°16' E 120°31'7 0.8
2015-Jan-23 23:27N 24°16' E 120°24'2111.2
2015-Jan-23 21:33N 24°01' E 120°07'1211.8
2015-Jan-23 20:33N 23°51' E 119°59'1311.1
2015-Jan-23 19:24N 23°39' E 119°56'4611.2
2015-Jan-23 15:19N 22°55' E 119°41'1013.1
2015-Jan-23 14:32N 22°50' E 119°32'1313.1
2015-Jan-23 13:33N 22°43' E 119°20'1313.3
2015-Jan-23 12:33N 22°35' E 119°08'  
2015-Jan-20 17:21N 21°36' E 108°20'1 0.6
2015-Jan-20 16:29N 21°37' E 108°20'0 0.0
2015-Jan-20 15:29N 21°37' E 108°20'0 0.0
2015-Jan-20 14:29N 21°37' E 108°20'0 0.0
2015-Jan-20 13:29N 21°37' E 108°20'0 0.0
2015-Jan-20 12:29N 21°37' E 108°20'0 0.0
2015-Jan-20 11:29N 21°37' E 108°20'0 0.0
2015-Jan-20 10:33N 21°37' E 108°20'0 0.0
2015-Jan-20 00:29N 21°37' E 108°20'0 0.0
2015-Jan-19 23:31N 21°37' E 108°20'0 0.0
2015-Jan-19 22:25N 21°36' E 108°20'0 0.1
2015-Jan-19 21:32N 21°37' E 108°20'0 0.0
2015-Jan-19 20:32N 21°37' E 108°20'0 0.0
2015-Jan-19 19:31N 21°37' E 108°20'0 0.0
2015-Jan-19 18:31N 21°37' E 108°20'0 0.0
2015-Jan-19 17:31N 21°37' E 108°20'0 0.0
2015-Jan-19 16:31N 21°37' E 108°20'0 0.0
2015-Jan-19 15:31N 21°37' E 108°20'0 0.0
2015-Jan-19 14:31N 21°37' E 108°20'0 0.1
2015-Jan-19 13:25N 21°37' E 108°20'0 0.1
2015-Jan-19 12:31N 21°37' E 108°20'0 0.0
2015-Jan-19 11:31N 21°37' E 108°20'0 0.0
2015-Jan-19 10:28N 21°37' E 108°20'0 0.0
2015-Jan-19 09:28N 21°37' E 108°20'0 0.0
2015-Jan-19 08:28N 21°37' E 108°20'0 0.0
2015-Jan-19 07:28N 21°37' E 108°20'0 0.1
2015-Jan-19 06:33N 21°37' E 108°20'  

Dump ship's entire track history